首页
METAR-TAF:

METAR-TAF

机场 :

拉巴特, 摩洛哥

拉巴特-塞拉国际机场

纬度: 34-03N, 经度: 006-46W, 海拔: 84米

当前天气观测

该预报发布于11分钟前的01:30 UTC
风速9节,风向
温度 13°C
湿度 77%
气压 1016 hPa
能見度: 6000
散云层高于1600英尺
多云层高于10000英尺

METAR: GMME 190130Z 19009KT 6000 SCT016 BKN100 13/09 Q1016 NOSIG

时间: 01:41 (01:41 UTC)

预报

该预报发布于2小时和41分钟前的23:00 UTC
预报有效从19日的 00点(UTC)到 20日的 06点(UTC)
风速5节,风向南转南东
能見度: 6000
散云层高于1300英尺
散云层高于2000英尺
多云层高于9000英尺
成为
从 19日的 06点(UTC)到 19日的 10点(UTC)
风速10节,风向西转西南
短暂存在
从 19日的 12点(UTC)到 19日的 18点(UTC)
风速2节,风向多变
能见度10公里或以上

TAF: GMME 182300Z 1900/2006 16005KT 6000 SCT013 SCT020 BKN090 BECMG 1906/1910 24010KT TEMPO 1912/1918 VRB02KT 9999

超过4000个机场的气象观测和天气预报(METAR&TAF报告)。

可查询的气象台以黄色和红色小点在地图上表示。

将鼠标移到小点上方,可查看气象台名称。

然后点击查看天气观测和预报。

如需切换地图:点击带黑十字的绿色按钮放大地图;点击带横线的绿色按钮缩小地图;或者点击绿色箭头查看邻近地区的地图。


METAR-TAF: